sensor_id;sensor_type;location;lat;lon;timestamp;P1;durP1;ratioP1;P2;durP2;ratioP2
12177;SDS011;6152;48.728;9.256;2022-08-19T00:01:26;13.35;;;10.57;;
12177;SDS011;6152;48.728;9.256;2022-08-19T00:03:54;12.90;;;10.35;;
12177;SDS011;6152;48.728;9.256;2022-08-19T00:06:25;13.93;;;11.18;;
12177;SDS011;6152;48.728;9.256;2022-08-19T00:08:52;12.85;;;11.13;;
12177;SDS011;6152;48.728;9.256;2022-08-19T00:11:19;12.27;;;10.35;;
12177;SDS011;6152;48.728;9.256;2022-08-19T00:13:45;13.15;;;10.15;;
12177;SDS011;6152;48.728;9.256;2022-08-19T00:16:13;13.63;;;10.60;;
12177;SDS011;6152;48.728;9.256;2022-08-19T00:18:40;12.68;;;10.48;;
12177;SDS011;6152;48.728;9.256;2022-08-19T00:21:06;15.93;;;11.07;;
12177;SDS011;6152;48.728;9.256;2022-08-19T00:23:32;13.48;;;11.00;;
12177;SDS011;6152;48.728;9.256;2022-08-19T00:25:59;13.90;;;10.82;;
12177;SDS011;6152;48.728;9.256;2022-08-19T00:28:25;13.38;;;10.82;;
12177;SDS011;6152;48.728;9.256;2022-08-19T00:30:52;12.45;;;10.75;;
12177;SDS011;6152;48.728;9.256;2022-08-19T00:33:18;13.52;;;10.55;;
12177;SDS011;6152;48.728;9.256;2022-08-19T00:35:45;13.38;;;10.75;;
12177;SDS011;6152;48.728;9.256;2022-08-19T00:38:11;14.55;;;11.35;;
12177;SDS011;6152;48.728;9.256;2022-08-19T00:40:37;13.05;;;10.68;;
12177;SDS011;6152;48.728;9.256;2022-08-19T00:43:07;12.40;;;10.35;;
12177;SDS011;6152;48.728;9.256;2022-08-19T00:45:35;13.43;;;10.75;;
12177;SDS011;6152;48.728;9.256;2022-08-19T00:48:02;13.00;;;10.68;;
12177;SDS011;6152;48.728;9.256;2022-08-19T00:50:29;13.55;;;10.77;;
12177;SDS011;6152;48.728;9.256;2022-08-19T00:52:56;13.70;;;10.57;;
12177;SDS011;6152;48.728;9.256;2022-08-19T00:55:24;14.00;;;10.75;;
12177;SDS011;6152;48.728;9.256;2022-08-19T00:57:58;13.50;;;11.07;;
12177;SDS011;6152;48.728;9.256;2022-08-19T01:00:30;14.00;;;10.45;;
12177;SDS011;6152;48.728;9.256;2022-08-19T01:03:00;13.40;;;11.02;;
12177;SDS011;6152;48.728;9.256;2022-08-19T01:05:26;14.80;;;10.95;;
12177;SDS011;6152;48.728;9.256;2022-08-19T01:07:54;14.50;;;10.93;;
12177;SDS011;6152;48.728;9.256;2022-08-19T01:10:25;13.35;;;10.50;;
12177;SDS011;6152;48.728;9.256;2022-08-19T01:12:54;13.18;;;10.80;;
12177;SDS011;6152;48.728;9.256;2022-08-19T01:15:24;15.45;;;11.40;;
12177;SDS011;6152;48.728;9.256;2022-08-19T01:17:56;11.98;;;9.68;;
12177;SDS011;6152;48.728;9.256;2022-08-19T01:20:24;14.30;;;10.77;;
12177;SDS011;6152;48.728;9.256;2022-08-19T01:23:00;16.27;;;12.02;;
12177;SDS011;6152;48.728;9.256;2022-08-19T01:25:32;13.18;;;10.45;;
12177;SDS011;6152;48.728;9.256;2022-08-19T01:28:19;16.10;;;11.32;;
12177;SDS011;6152;48.728;9.256;2022-08-19T01:30:51;15.02;;;11.40;;
12177;SDS011;6152;48.728;9.256;2022-08-19T01:33:18;12.13;;;9.95;;
12177;SDS011;6152;48.728;9.256;2022-08-19T01:35:45;13.73;;;10.98;;
12177;SDS011;6152;48.728;9.256;2022-08-19T01:38:22;14.98;;;10.80;;
12177;SDS011;6152;48.728;9.256;2022-08-19T01:40:50;14.45;;;11.27;;
12177;SDS011;6152;48.728;9.256;2022-08-19T01:43:17;13.80;;;10.90;;
12177;SDS011;6152;48.728;9.256;2022-08-19T01:45:44;14.75;;;11.05;;
12177;SDS011;6152;48.728;9.256;2022-08-19T01:48:11;13.50;;;11.13;;
12177;SDS011;6152;48.728;9.256;2022-08-19T01:50:38;14.45;;;11.13;;
12177;SDS011;6152;48.728;9.256;2022-08-19T01:53:05;15.95;;;11.52;;
12177;SDS011;6152;48.728;9.256;2022-08-19T01:55:37;13.73;;;10.82;;
12177;SDS011;6152;48.728;9.256;2022-08-19T01:58:06;13.73;;;10.90;;
12177;SDS011;6152;48.728;9.256;2022-08-19T02:00:37;13.35;;;10.85;;
12177;SDS011;6152;48.728;9.256;2022-08-19T02:03:03;15.30;;;10.73;;
12177;SDS011;6152;48.728;9.256;2022-08-19T02:05:29;15.85;;;11.63;;
12177;SDS011;6152;48.728;9.256;2022-08-19T02:07:56;15.07;;;10.98;;
12177;SDS011;6152;48.728;9.256;2022-08-19T02:10:23;13.25;;;10.90;;
12177;SDS011;6152;48.728;9.256;2022-08-19T02:12:50;15.60;;;11.00;;
12177;SDS011;6152;48.728;9.256;2022-08-19T02:15:17;14.88;;;11.30;;
12177;SDS011;6152;48.728;9.256;2022-08-19T02:17:44;16.73;;;12.05;;
12177;SDS011;6152;48.728;9.256;2022-08-19T02:20:11;17.02;;;11.57;;
12177;SDS011;6152;48.728;9.256;2022-08-19T02:22:38;15.25;;;11.70;;
12177;SDS011;6152;48.728;9.256;2022-08-19T02:25:07;15.10;;;11.75;;
12177;SDS011;6152;48.728;9.256;2022-08-19T02:27:34;14.73;;;11.57;;
12177;SDS011;6152;48.728;9.256;2022-08-19T02:30:00;17.27;;;12.43;;
12177;SDS011;6152;48.728;9.256;2022-08-19T02:32:27;16.48;;;12.35;;
12177;SDS011;6152;48.728;9.256;2022-08-19T02:34:55;18.27;;;12.40;;
12177;SDS011;6152;48.728;9.256;2022-08-19T02:37:21;17.17;;;12.30;;
12177;SDS011;6152;48.728;9.256;2022-08-19T02:40:06;14.55;;;11.55;;
12177;SDS011;6152;48.728;9.256;2022-08-19T02:42:33;14.85;;;11.48;;
12177;SDS011;6152;48.728;9.256;2022-08-19T02:44:59;18.67;;;13.23;;
12177;SDS011;6152;48.728;9.256;2022-08-19T02:47:25;18.80;;;13.32;;
12177;SDS011;6152;48.728;9.256;2022-08-19T02:49:51;18.58;;;13.63;;
12177;SDS011;6152;48.728;9.256;2022-08-19T02:52:17;18.45;;;12.88;;
12177;SDS011;6152;48.728;9.256;2022-08-19T02:54:43;18.40;;;12.98;;
12177;SDS011;6152;48.728;9.256;2022-08-19T02:57:10;18.65;;;13.25;;
12177;SDS011;6152;48.728;9.256;2022-08-19T02:59:36;18.75;;;13.00;;
12177;SDS011;6152;48.728;9.256;2022-08-19T03:02:02;19.08;;;13.10;;
12177;SDS011;6152;48.728;9.256;2022-08-19T03:04:28;16.80;;;12.75;;
12177;SDS011;6152;48.728;9.256;2022-08-19T03:06:54;18.42;;;13.68;;
12177;SDS011;6152;48.728;9.256;2022-08-19T03:09:22;19.13;;;13.68;;
12177;SDS011;6152;48.728;9.256;2022-08-19T03:11:48;19.20;;;13.82;;
12177;SDS011;6152;48.728;9.256;2022-08-19T03:14:15;19.85;;;14.13;;
12177;SDS011;6152;48.728;9.256;2022-08-19T03:16:47;19.88;;;14.25;;
12177;SDS011;6152;48.728;9.256;2022-08-19T03:19:16;18.23;;;13.70;;
12177;SDS011;6152;48.728;9.256;2022-08-19T03:21:44;21.55;;;15.30;;
12177;SDS011;6152;48.728;9.256;2022-08-19T03:24:11;20.80;;;15.05;;
12177;SDS011;6152;48.728;9.256;2022-08-19T03:26:39;21.83;;;15.13;;
12177;SDS011;6152;48.728;9.256;2022-08-19T03:29:07;23.38;;;15.68;;
12177;SDS011;6152;48.728;9.256;2022-08-19T03:31:35;20.67;;;15.48;;
12177;SDS011;6152;48.728;9.256;2022-08-19T03:34:02;22.25;;;14.73;;
12177;SDS011;6152;48.728;9.256;2022-08-19T03:36:28;21.35;;;15.65;;
12177;SDS011;6152;48.728;9.256;2022-08-19T03:38:56;20.10;;;14.73;;
12177;SDS011;6152;48.728;9.256;2022-08-19T03:41:26;22.67;;;15.57;;
12177;SDS011;6152;48.728;9.256;2022-08-19T03:43:54;20.98;;;15.15;;
12177;SDS011;6152;48.728;9.256;2022-08-19T03:46:22;26.15;;;16.65;;
12177;SDS011;6152;48.728;9.256;2022-08-19T03:48:50;21.58;;;15.27;;
12177;SDS011;6152;48.728;9.256;2022-08-19T03:53:49;24.08;;;15.68;;
12177;SDS011;6152;48.728;9.256;2022-08-19T03:56:17;22.08;;;15.30;;
12177;SDS011;6152;48.728;9.256;2022-08-19T03:58:43;21.85;;;15.70;;
12177;SDS011;6152;48.728;9.256;2022-08-19T04:01:13;25.33;;;16.15;;
12177;SDS011;6152;48.728;9.256;2022-08-19T04:03:43;23.23;;;16.63;;
12177;SDS011;6152;48.728;9.256;2022-08-19T04:06:13;22.80;;;15.57;;
12177;SDS011;6152;48.728;9.256;2022-08-19T04:08:51;22.60;;;15.57;;
12177;SDS011;6152;48.728;9.256;2022-08-19T04:11:24;22.33;;;17.10;;
12177;SDS011;6152;48.728;9.256;2022-08-19T04:13:52;22.02;;;16.20;;
12177;SDS011;6152;48.728;9.256;2022-08-19T04:16:19;22.20;;;15.88;;
12177;SDS011;6152;48.728;9.256;2022-08-19T04:18:47;21.98;;;17.45;;
12177;SDS011;6152;48.728;9.256;2022-08-19T04:21:18;22.45;;;15.77;;
12177;SDS011;6152;48.728;9.256;2022-08-19T04:23:47;24.17;;;16.00;;
12177;SDS011;6152;48.728;9.256;2022-08-19T04:26:17;27.08;;;17.40;;
12177;SDS011;6152;48.728;9.256;2022-08-19T04:28:46;24.25;;;16.92;;
12177;SDS011;6152;48.728;9.256;2022-08-19T04:31:18;23.65;;;17.10;;
12177;SDS011;6152;48.728;9.256;2022-08-19T04:33:52;25.88;;;17.23;;
12177;SDS011;6152;48.728;9.256;2022-08-19T04:36:22;23.17;;;17.35;;
12177;SDS011;6152;48.728;9.256;2022-08-19T04:38:52;23.90;;;17.25;;
12177;SDS011;6152;48.728;9.256;2022-08-19T04:41:24;25.50;;;17.70;;
12177;SDS011;6152;48.728;9.256;2022-08-19T04:44:09;24.17;;;17.00;;
12177;SDS011;6152;48.728;9.256;2022-08-19T04:46:35;25.73;;;16.75;;
12177;SDS011;6152;48.728;9.256;2022-08-19T04:49:02;26.35;;;17.08;;
12177;SDS011;6152;48.728;9.256;2022-08-19T04:51:31;24.80;;;17.08;;
12177;SDS011;6152;48.728;9.256;2022-08-19T04:53:58;22.60;;;16.75;;
12177;SDS011;6152;48.728;9.256;2022-08-19T04:56:26;23.92;;;17.05;;
12177;SDS011;6152;48.728;9.256;2022-08-19T04:58:53;23.73;;;17.13;;
12177;SDS011;6152;48.728;9.256;2022-08-19T05:01:23;23.40;;;16.88;;
12177;SDS011;6152;48.728;9.256;2022-08-19T05:03:56;26.55;;;17.77;;
12177;SDS011;6152;48.728;9.256;2022-08-19T05:06:25;27.77;;;18.52;;
12177;SDS011;6152;48.728;9.256;2022-08-19T05:08:51;22.48;;;17.05;;
12177;SDS011;6152;48.728;9.256;2022-08-19T05:11:19;24.40;;;16.85;;
12177;SDS011;6152;48.728;9.256;2022-08-19T05:13:47;24.70;;;17.17;;
12177;SDS011;6152;48.728;9.256;2022-08-19T05:16:14;28.27;;;18.55;;
12177;SDS011;6152;48.728;9.256;2022-08-19T05:18:42;25.20;;;17.50;;
12177;SDS011;6152;48.728;9.256;2022-08-19T05:21:27;25.02;;;17.23;;
12177;SDS011;6152;48.728;9.256;2022-08-19T05:24:13;26.08;;;17.30;;
12177;SDS011;6152;48.728;9.256;2022-08-19T05:26:41;24.40;;;16.92;;
12177;SDS011;6152;48.728;9.256;2022-08-19T05:29:11;24.58;;;17.35;;
12177;SDS011;6152;48.728;9.256;2022-08-19T05:31:39;24.52;;;16.73;;
12177;SDS011;6152;48.728;9.256;2022-08-19T05:34:06;21.58;;;16.98;;
12177;SDS011;6152;48.728;9.256;2022-08-19T05:36:34;23.15;;;17.42;;
12177;SDS011;6152;48.728;9.256;2022-08-19T05:39:05;22.05;;;16.30;;
12177;SDS011;6152;48.728;9.256;2022-08-19T05:41:32;23.33;;;17.42;;
12177;SDS011;6152;48.728;9.256;2022-08-19T05:44:00;25.52;;;18.35;;
12177;SDS011;6152;48.728;9.256;2022-08-19T05:46:31;26.33;;;17.63;;
12177;SDS011;6152;48.728;9.256;2022-08-19T05:48:57;25.65;;;17.80;;
12177;SDS011;6152;48.728;9.256;2022-08-19T05:51:24;24.02;;;17.08;;
12177;SDS011;6152;48.728;9.256;2022-08-19T05:53:50;22.80;;;16.27;;
12177;SDS011;6152;48.728;9.256;2022-08-19T05:56:17;23.63;;;17.13;;
12177;SDS011;6152;48.728;9.256;2022-08-19T05:58:44;22.50;;;16.98;;
12177;SDS011;6152;48.728;9.256;2022-08-19T06:01:11;22.77;;;17.23;;
12177;SDS011;6152;48.728;9.256;2022-08-19T06:03:42;25.35;;;18.10;;
12177;SDS011;6152;48.728;9.256;2022-08-19T06:06:11;26.13;;;17.63;;
12177;SDS011;6152;48.728;9.256;2022-08-19T06:08:38;23.35;;;16.38;;
12177;SDS011;6152;48.728;9.256;2022-08-19T06:13:40;22.13;;;16.42;;
12177;SDS011;6152;48.728;9.256;2022-08-19T06:16:07;24.33;;;17.95;;
12177;SDS011;6152;48.728;9.256;2022-08-19T06:18:33;24.15;;;17.98;;
12177;SDS011;6152;48.728;9.256;2022-08-19T06:20:59;23.67;;;17.85;;
12177;SDS011;6152;48.728;9.256;2022-08-19T06:23:28;25.13;;;18.05;;
12177;SDS011;6152;48.728;9.256;2022-08-19T06:25:55;24.00;;;18.35;;
12177;SDS011;6152;48.728;9.256;2022-08-19T06:28:21;29.05;;;18.25;;
12177;SDS011;6152;48.728;9.256;2022-08-19T06:30:48;24.73;;;17.65;;
12177;SDS011;6152;48.728;9.256;2022-08-19T06:33:16;24.35;;;16.70;;
12177;SDS011;6152;48.728;9.256;2022-08-19T06:35:42;25.20;;;17.40;;
12177;SDS011;6152;48.728;9.256;2022-08-19T06:38:08;24.50;;;17.77;;
12177;SDS011;6152;48.728;9.256;2022-08-19T06:40:35;26.25;;;18.17;;
12177;SDS011;6152;48.728;9.256;2022-08-19T06:43:03;27.75;;;18.58;;
12177;SDS011;6152;48.728;9.256;2022-08-19T06:45:29;24.17;;;17.38;;
12177;SDS011;6152;48.728;9.256;2022-08-19T06:47:55;23.67;;;17.35;;
12177;SDS011;6152;48.728;9.256;2022-08-19T06:50:24;24.83;;;18.40;;
12177;SDS011;6152;48.728;9.256;2022-08-19T06:52:50;23.58;;;18.30;;
12177;SDS011;6152;48.728;9.256;2022-08-19T06:55:16;25.63;;;16.75;;
12177;SDS011;6152;48.728;9.256;2022-08-19T06:57:43;27.75;;;18.55;;
12177;SDS011;6152;48.728;9.256;2022-08-19T07:00:11;26.20;;;17.17;;
12177;SDS011;6152;48.728;9.256;2022-08-19T07:02:43;23.45;;;17.30;;
12177;SDS011;6152;48.728;9.256;2022-08-19T07:05:10;23.95;;;17.80;;
12177;SDS011;6152;48.728;9.256;2022-08-19T07:07:36;24.38;;;17.52;;
12177;SDS011;6152;48.728;9.256;2022-08-19T07:10:03;25.08;;;17.65;;
12177;SDS011;6152;48.728;9.256;2022-08-19T07:12:30;26.75;;;17.75;;
12177;SDS011;6152;48.728;9.256;2022-08-19T07:15:00;27.65;;;18.25;;
12177;SDS011;6152;48.728;9.256;2022-08-19T07:17:27;24.05;;;17.60;;
12177;SDS011;6152;48.728;9.256;2022-08-19T07:19:53;25.05;;;17.83;;
12177;SDS011;6152;48.728;9.256;2022-08-19T07:22:20;24.80;;;17.98;;
12177;SDS011;6152;48.728;9.256;2022-08-19T07:24:50;24.73;;;17.83;;
12177;SDS011;6152;48.728;9.256;2022-08-19T07:27:17;24.25;;;17.95;;
12177;SDS011;6152;48.728;9.256;2022-08-19T07:29:43;24.50;;;17.20;;
12177;SDS011;6152;48.728;9.256;2022-08-19T07:32:10;29.35;;;19.00;;
12177;SDS011;6152;48.728;9.256;2022-08-19T07:34:37;27.73;;;18.85;;
12177;SDS011;6152;48.728;9.256;2022-08-19T07:37:04;25.25;;;17.70;;
12177;SDS011;6152;48.728;9.256;2022-08-19T07:39:31;26.45;;;18.08;;
12177;SDS011;6152;48.728;9.256;2022-08-19T07:42:01;24.67;;;17.85;;
12177;SDS011;6152;48.728;9.256;2022-08-19T07:44:31;27.52;;;18.17;;
12177;SDS011;6152;48.728;9.256;2022-08-19T07:46:58;27.73;;;18.45;;
12177;SDS011;6152;48.728;9.256;2022-08-19T07:49:25;25.58;;;17.80;;
12177;SDS011;6152;48.728;9.256;2022-08-19T07:52:03;25.83;;;18.10;;
12177;SDS011;6152;48.728;9.256;2022-08-19T07:54:33;28.42;;;18.45;;
12177;SDS011;6152;48.728;9.256;2022-08-19T07:57:01;26.38;;;18.70;;
12177;SDS011;6152;48.728;9.256;2022-08-19T07:59:28;26.17;;;18.80;;
12177;SDS011;6152;48.728;9.256;2022-08-19T08:01:55;25.58;;;17.73;;
12177;SDS011;6152;48.728;9.256;2022-08-19T08:04:24;25.70;;;18.33;;
12177;SDS011;6152;48.728;9.256;2022-08-19T08:07:09;25.80;;;18.48;;
12177;SDS011;6152;48.728;9.256;2022-08-19T08:09:54;26.90;;;18.63;;
12177;SDS011;6152;48.728;9.256;2022-08-19T08:12:28;29.75;;;19.45;;
12177;SDS011;6152;48.728;9.256;2022-08-19T08:14:59;27.13;;;18.75;;
12177;SDS011;6152;48.728;9.256;2022-08-19T08:17:29;27.45;;;18.63;;
12177;SDS011;6152;48.728;9.256;2022-08-19T08:19:56;24.55;;;17.65;;
12177;SDS011;6152;48.728;9.256;2022-08-19T08:22:23;27.58;;;19.05;;
12177;SDS011;6152;48.728;9.256;2022-08-19T08:25:09;27.10;;;18.52;;
12177;SDS011;6152;48.728;9.256;2022-08-19T08:27:39;26.13;;;17.55;;
12177;SDS011;6152;48.728;9.256;2022-08-19T08:30:10;25.85;;;18.45;;
12177;SDS011;6152;48.728;9.256;2022-08-19T08:32:41;25.90;;;18.45;;
12177;SDS011;6152;48.728;9.256;2022-08-19T08:35:08;25.25;;;18.73;;
12177;SDS011;6152;48.728;9.256;2022-08-19T08:37:37;23.60;;;17.42;;
12177;SDS011;6152;48.728;9.256;2022-08-19T08:40:05;23.67;;;17.17;;
12177;SDS011;6152;48.728;9.256;2022-08-19T08:42:45;26.40;;;18.00;;
12177;SDS011;6152;48.728;9.256;2022-08-19T08:45:19;24.77;;;17.50;;
12177;SDS011;6152;48.728;9.256;2022-08-19T08:47:48;23.33;;;17.90;;
12177;SDS011;6152;48.728;9.256;2022-08-19T08:53:03;25.67;;;18.35;;
12177;SDS011;6152;48.728;9.256;2022-08-19T08:55:36;24.05;;;17.00;;
12177;SDS011;6152;48.728;9.256;2022-08-19T08:58:06;24.85;;;17.10;;
12177;SDS011;6152;48.728;9.256;2022-08-19T09:00:43;24.27;;;18.10;;
12177;SDS011;6152;48.728;9.256;2022-08-19T09:03:21;22.83;;;17.02;;
12177;SDS011;6152;48.728;9.256;2022-08-19T09:06:02;22.45;;;16.30;;
12177;SDS011;6152;48.728;9.256;2022-08-19T09:11:10;26.83;;;17.95;;
12177;SDS011;6152;48.728;9.256;2022-08-19T09:14:01;24.30;;;17.42;;
12177;SDS011;6152;48.728;9.256;2022-08-19T09:16:38;24.38;;;16.95;;
12177;SDS011;6152;48.728;9.256;2022-08-19T09:19:06;23.05;;;16.17;;
12177;SDS011;6152;48.728;9.256;2022-08-19T09:21:33;22.55;;;17.25;;
12177;SDS011;6152;48.728;9.256;2022-08-19T09:24:00;21.30;;;16.42;;
12177;SDS011;6152;48.728;9.256;2022-08-19T09:26:27;24.85;;;17.88;;
12177;SDS011;6152;48.728;9.256;2022-08-19T09:28:54;24.02;;;16.30;;
12177;SDS011;6152;48.728;9.256;2022-08-19T09:31:22;25.60;;;17.70;;
12177;SDS011;6152;48.728;9.256;2022-08-19T09:33:51;24.50;;;16.85;;
12177;SDS011;6152;48.728;9.256;2022-08-19T09:36:22;24.02;;;17.40;;
12177;SDS011;6152;48.728;9.256;2022-08-19T09:38:50;23.00;;;16.60;;
12177;SDS011;6152;48.728;9.256;2022-08-19T09:41:19;23.05;;;17.90;;
12177;SDS011;6152;48.728;9.256;2022-08-19T09:43:47;24.00;;;16.38;;
12177;SDS011;6152;48.728;9.256;2022-08-19T09:46:17;24.02;;;17.17;;
12177;SDS011;6152;48.728;9.256;2022-08-19T09:48:46;22.42;;;17.08;;
12177;SDS011;6152;48.728;9.256;2022-08-19T09:51:18;22.90;;;16.73;;
12177;SDS011;6152;48.728;9.256;2022-08-19T09:53:47;24.02;;;17.45;;
12177;SDS011;6152;48.728;9.256;2022-08-19T09:56:19;23.13;;;17.10;;
12177;SDS011;6152;48.728;9.256;2022-08-19T09:58:46;22.13;;;17.33;;
12177;SDS011;6152;48.728;9.256;2022-08-19T10:01:20;24.20;;;17.58;;
12177;SDS011;6152;48.728;9.256;2022-08-19T10:03:49;22.17;;;16.13;;
12177;SDS011;6152;48.728;9.256;2022-08-19T10:06:20;20.90;;;16.25;;
12177;SDS011;6152;48.728;9.256;2022-08-19T10:08:51;21.23;;;16.05;;
12177;SDS011;6152;48.728;9.256;2022-08-19T10:11:18;27.48;;;17.63;;
12177;SDS011;6152;48.728;9.256;2022-08-19T10:13:45;21.90;;;16.88;;
12177;SDS011;6152;48.728;9.256;2022-08-19T10:16:15;22.95;;;17.35;;
12177;SDS011;6152;48.728;9.256;2022-08-19T10:18:43;23.52;;;17.33;;
12177;SDS011;6152;48.728;9.256;2022-08-19T10:23:43;22.33;;;17.40;;
12177;SDS011;6152;48.728;9.256;2022-08-19T10:26:12;25.85;;;17.75;;
12177;SDS011;6152;48.728;9.256;2022-08-19T10:28:40;25.67;;;17.95;;
12177;SDS011;6152;48.728;9.256;2022-08-19T10:31:08;23.38;;;16.83;;
12177;SDS011;6152;48.728;9.256;2022-08-19T10:33:36;21.67;;;17.88;;
12177;SDS011;6152;48.728;9.256;2022-08-19T10:36:06;23.98;;;16.95;;
12177;SDS011;6152;48.728;9.256;2022-08-19T10:38:40;26.10;;;17.10;;
12177;SDS011;6152;48.728;9.256;2022-08-19T10:41:11;22.48;;;16.58;;
12177;SDS011;6152;48.728;9.256;2022-08-19T10:43:40;22.15;;;16.33;;
12177;SDS011;6152;48.728;9.256;2022-08-19T10:46:10;22.27;;;16.55;;
12177;SDS011;6152;48.728;9.256;2022-08-19T10:48:39;23.23;;;17.77;;
12177;SDS011;6152;48.728;9.256;2022-08-19T10:51:06;23.85;;;17.23;;
12177;SDS011;6152;48.728;9.256;2022-08-19T10:53:51;20.83;;;16.48;;
12177;SDS011;6152;48.728;9.256;2022-08-19T10:56:18;20.98;;;17.27;;
12177;SDS011;6152;48.728;9.256;2022-08-19T10:59:03;23.20;;;16.33;;
12177;SDS011;6152;48.728;9.256;2022-08-19T11:01:31;22.50;;;16.83;;
12177;SDS011;6152;48.728;9.256;2022-08-19T11:03:59;18.38;;;15.45;;
12177;SDS011;6152;48.728;9.256;2022-08-19T11:06:27;21.95;;;15.88;;
12177;SDS011;6152;48.728;9.256;2022-08-19T11:08:54;21.27;;;16.10;;
12177;SDS011;6152;48.728;9.256;2022-08-19T11:11:21;21.55;;;15.98;;
12177;SDS011;6152;48.728;9.256;2022-08-19T11:13:47;21.13;;;15.82;;
12177;SDS011;6152;48.728;9.256;2022-08-19T11:16:16;19.90;;;15.63;;
12177;SDS011;6152;48.728;9.256;2022-08-19T11:18:45;19.75;;;14.95;;
12177;SDS011;6152;48.728;9.256;2022-08-19T11:21:18;21.30;;;16.08;;
12177;SDS011;6152;48.728;9.256;2022-08-19T11:23:46;19.67;;;16.13;;
12177;SDS011;6152;48.728;9.256;2022-08-19T11:26:14;21.45;;;17.23;;
12177;SDS011;6152;48.728;9.256;2022-08-19T11:28:42;24.95;;;17.70;;
12177;SDS011;6152;48.728;9.256;2022-08-19T11:31:12;23.65;;;18.35;;
12177;SDS011;6152;48.728;9.256;2022-08-19T11:33:40;25.95;;;18.90;;
12177;SDS011;6152;48.728;9.256;2022-08-19T11:36:08;27.75;;;19.70;;
12177;SDS011;6152;48.728;9.256;2022-08-19T11:38:35;28.33;;;19.30;;
12177;SDS011;6152;48.728;9.256;2022-08-19T11:41:02;29.60;;;20.85;;
12177;SDS011;6152;48.728;9.256;2022-08-19T11:43:30;29.25;;;20.15;;
12177;SDS011;6152;48.728;9.256;2022-08-19T11:45:57;30.40;;;19.77;;
12177;SDS011;6152;48.728;9.256;2022-08-19T11:48:23;33.40;;;20.58;;
12177;SDS011;6152;48.728;9.256;2022-08-19T11:50:51;29.98;;;21.60;;
12177;SDS011;6152;48.728;9.256;2022-08-19T11:53:20;31.45;;;22.67;;
12177;SDS011;6152;48.728;9.256;2022-08-19T11:55:47;30.92;;;21.88;;
12177;SDS011;6152;48.728;9.256;2022-08-19T11:58:14;29.35;;;22.08;;
12177;SDS011;6152;48.728;9.256;2022-08-19T12:00:41;31.73;;;22.63;;
12177;SDS011;6152;48.728;9.256;2022-08-19T12:03:10;32.85;;;21.45;;
12177;SDS011;6152;48.728;9.256;2022-08-19T12:05:37;32.03;;;21.25;;
12177;SDS011;6152;48.728;9.256;2022-08-19T12:08:05;34.17;;;22.00;;
12177;SDS011;6152;48.728;9.256;2022-08-19T12:10:32;34.22;;;22.08;;
12177;SDS011;6152;48.728;9.256;2022-08-19T12:12:59;32.78;;;22.60;;
12177;SDS011;6152;48.728;9.256;2022-08-19T12:15:26;31.60;;;23.35;;
12177;SDS011;6152;48.728;9.256;2022-08-19T12:17:54;32.65;;;22.33;;
12177;SDS011;6152;48.728;9.256;2022-08-19T12:20:21;33.05;;;22.92;;
12177;SDS011;6152;48.728;9.256;2022-08-19T12:22:48;35.15;;;23.30;;
12177;SDS011;6152;48.728;9.256;2022-08-19T12:25:15;45.80;;;28.38;;
12177;SDS011;6152;48.728;9.256;2022-08-19T12:27:42;42.13;;;25.45;;
12177;SDS011;6152;48.728;9.256;2022-08-19T12:30:09;35.50;;;23.92;;
12177;SDS011;6152;48.728;9.256;2022-08-19T12:32:36;32.33;;;22.55;;
12177;SDS011;6152;48.728;9.256;2022-08-19T12:35:03;35.05;;;23.00;;
12177;SDS011;6152;48.728;9.256;2022-08-19T12:37:30;38.95;;;24.58;;
12177;SDS011;6152;48.728;9.256;2022-08-19T12:39:57;33.40;;;23.88;;
12177;SDS011;6152;48.728;9.256;2022-08-19T12:42:24;37.20;;;23.55;;
12177;SDS011;6152;48.728;9.256;2022-08-19T12:44:50;35.78;;;23.52;;
12177;SDS011;6152;48.728;9.256;2022-08-19T12:47:16;36.75;;;23.95;;
12177;SDS011;6152;48.728;9.256;2022-08-19T12:49:43;38.03;;;24.65;;
12177;SDS011;6152;48.728;9.256;2022-08-19T12:52:11;35.42;;;24.05;;
12177;SDS011;6152;48.728;9.256;2022-08-19T12:54:40;36.00;;;23.48;;
12177;SDS011;6152;48.728;9.256;2022-08-19T12:57:08;36.88;;;23.58;;
12177;SDS011;6152;48.728;9.256;2022-08-19T12:59:35;37.70;;;24.30;;
12177;SDS011;6152;48.728;9.256;2022-08-19T13:02:03;35.50;;;24.20;;
12177;SDS011;6152;48.728;9.256;2022-08-19T13:04:31;35.78;;;24.58;;
12177;SDS011;6152;48.728;9.256;2022-08-19T13:07:00;39.22;;;24.77;;
12177;SDS011;6152;48.728;9.256;2022-08-19T13:09:26;33.58;;;23.77;;
12177;SDS011;6152;48.728;9.256;2022-08-19T13:11:52;36.42;;;25.05;;
12177;SDS011;6152;48.728;9.256;2022-08-19T13:14:18;37.40;;;24.15;;
12177;SDS011;6152;48.728;9.256;2022-08-19T13:16:45;33.60;;;23.33;;
12177;SDS011;6152;48.728;9.256;2022-08-19T13:19:11;36.15;;;24.50;;
12177;SDS011;6152;48.728;9.256;2022-08-19T13:21:38;36.40;;;24.65;;
12177;SDS011;6152;48.728;9.256;2022-08-19T13:24:04;32.60;;;22.40;;
12177;SDS011;6152;48.728;9.256;2022-08-19T13:26:31;36.60;;;22.85;;
12177;SDS011;6152;48.728;9.256;2022-08-19T13:28:57;33.42;;;23.42;;
12177;SDS011;6152;48.728;9.256;2022-08-19T13:31:42;36.03;;;23.70;;
12177;SDS011;6152;48.728;9.256;2022-08-19T13:34:28;34.15;;;23.50;;
12177;SDS011;6152;48.728;9.256;2022-08-19T13:36:57;35.08;;;23.67;;
12177;SDS011;6152;48.728;9.256;2022-08-19T13:39:24;35.75;;;24.30;;
12177;SDS011;6152;48.728;9.256;2022-08-19T13:41:50;34.58;;;23.77;;
12177;SDS011;6152;48.728;9.256;2022-08-19T13:44:17;34.05;;;23.60;;
12177;SDS011;6152;48.728;9.256;2022-08-19T13:46:44;34.25;;;21.95;;
12177;SDS011;6152;48.728;9.256;2022-08-19T13:49:12;34.72;;;23.33;;
12177;SDS011;6152;48.728;9.256;2022-08-19T13:51:39;34.20;;;23.52;;
12177;SDS011;6152;48.728;9.256;2022-08-19T13:54:07;36.10;;;24.27;;
12177;SDS011;6152;48.728;9.256;2022-08-19T13:56:34;35.92;;;24.73;;
12177;SDS011;6152;48.728;9.256;2022-08-19T13:59:05;37.35;;;24.35;;
12177;SDS011;6152;48.728;9.256;2022-08-19T14:01:31;34.50;;;24.05;;
12177;SDS011;6152;48.728;9.256;2022-08-19T14:03:57;36.55;;;24.40;;
12177;SDS011;6152;48.728;9.256;2022-08-19T14:06:23;37.58;;;25.33;;
12177;SDS011;6152;48.728;9.256;2022-08-19T14:08:50;36.67;;;24.48;;
12177;SDS011;6152;48.728;9.256;2022-08-19T14:11:17;37.40;;;24.98;;
12177;SDS011;6152;48.728;9.256;2022-08-19T14:13:44;34.03;;;23.02;;
12177;SDS011;6152;48.728;9.256;2022-08-19T14:16:10;36.45;;;23.77;;
12177;SDS011;6152;48.728;9.256;2022-08-19T14:18:38;40.08;;;26.05;;
12177;SDS011;6152;48.728;9.256;2022-08-19T14:21:06;38.17;;;24.52;;
12177;SDS011;6152;48.728;9.256;2022-08-19T14:23:33;37.92;;;25.23;;
12177;SDS011;6152;48.728;9.256;2022-08-19T14:26:05;35.78;;;23.95;;
12177;SDS011;6152;48.728;9.256;2022-08-19T14:28:37;37.60;;;25.50;;
12177;SDS011;6152;48.728;9.256;2022-08-19T14:31:06;39.78;;;25.00;;
12177;SDS011;6152;48.728;9.256;2022-08-19T14:33:36;37.83;;;25.40;;
12177;SDS011;6152;48.728;9.256;2022-08-19T14:36:03;33.92;;;24.20;;
12177;SDS011;6152;48.728;9.256;2022-08-19T14:38:30;39.63;;;25.67;;
12177;SDS011;6152;48.728;9.256;2022-08-19T14:43:48;35.50;;;25.48;;
12177;SDS011;6152;48.728;9.256;2022-08-19T14:46:18;36.97;;;24.50;;
12177;SDS011;6152;48.728;9.256;2022-08-19T14:48:46;40.67;;;24.88;;
12177;SDS011;6152;48.728;9.256;2022-08-19T14:51:13;34.17;;;24.15;;
12177;SDS011;6152;48.728;9.256;2022-08-19T14:53:39;33.60;;;24.38;;
12177;SDS011;6152;48.728;9.256;2022-08-19T14:56:07;33.10;;;23.42;;
12177;SDS011;6152;48.728;9.256;2022-08-19T14:58:37;33.30;;;24.00;;
12177;SDS011;6152;48.728;9.256;2022-08-19T15:01:07;34.22;;;22.92;;